Time,TemperatureF,DewpointF,PressureIn,WindDirection,WindDirectionDegrees,WindSpeedMPH,WindSpeedGustMPH,Humidity,HourlyPrecipIn,Conditions,Clouds,dailyrainin,SoftwareType,DateUTC
2013-09-05 00:03:00,61.3,48.7,30.05,ESE,112,0.0,0.0,63,0.00,,CLR,0.00,VWS V14.01,2013-09-05 05:03:00,
2013-09-05 00:09:00,61.2,48.5,30.05,ESE,113,0.0,0.0,63,0.00,,CLR,0.00,VWS V14.01,2013-09-05 05:09:00,
2013-09-05 00:14:00,61.2,48.5,30.05,ESE,110,0.0,0.0,63,0.00,,CLR,0.00,VWS V14.01,2013-09-05 05:14:00,
2013-09-05 00:19:00,61.0,48.7,30.05,ESE,110,0.0,0.0,64,0.00,,CLR,0.00,VWS V14.01,2013-09-05 05:19:00,
2013-09-05 00:24:00,61.0,48.7,30.05,ESE,110,0.0,0.0,64,0.00,,CLR,0.00,VWS V14.01,2013-09-05 05:24:00,
2013-09-05 00:29:00,61.0,48.7,30.05,ESE,110,0.0,0.0,64,0.00,,CLR,0.00,VWS V14.01,2013-09-05 05:29:00,
2013-09-05 00:35:00,61.0,49.2,30.05,ESE,110,0.0,0.0,65,0.00,,CLR,0.00,VWS V14.01,2013-09-05 05:35:00,
2013-09-05 00:41:00,61.0,49.2,30.05,ESE,110,0.0,0.0,65,0.00,,CLR,0.00,VWS V14.01,2013-09-05 05:41:00,
2013-09-05 00:46:00,61.0,49.5,30.05,ESE,110,0.0,0.0,66,0.00,,CLR,0.00,VWS V14.01,2013-09-05 05:46:00,
2013-09-05 00:52:00,60.8,49.4,30.05,ESE,110,0.0,0.0,66,0.00,,CLR,0.00,VWS V14.01,2013-09-05 05:52:00,
2013-09-05 00:57:00,61.0,50.0,30.05,ESE,110,0.0,0.0,67,0.00,,CLR,0.00,VWS V14.01,2013-09-05 05:57:00,
2013-09-05 01:03:00,61.0,50.0,30.05,ESE,110,0.0,0.0,67,0.00,,CLR,0.00,VWS V14.01,2013-09-05 06:03:00,
2013-09-05 01:08:00,60.8,49.8,30.05,ESE,110,0.0,0.0,67,0.00,,CLR,0.00,VWS V14.01,2013-09-05 06:08:00,
2013-09-05 01:13:00,60.8,49.8,30.05,ESE,110,0.0,0.0,67,0.00,,CLR,0.00,VWS V14.01,2013-09-05 06:13:00,
2013-09-05 01:19:00,60.6,50.0,30.08,ESE,110,0.0,0.0,68,0.00,,CLR,0.00,VWS V14.01,2013-09-05 06:19:00,
2013-09-05 01:24:00,60.4,49.8,30.08,NE,35,0.0,0.0,68,0.00,,CLR,0.00,VWS V14.01,2013-09-05 06:24:00,
2013-09-05 01:30:00,60.4,50.2,30.08,NE,35,0.0,0.0,69,0.00,,CLR,0.00,VWS V14.01,2013-09-05 06:30:00,
2013-09-05 01:35:00,60.4,50.2,30.08,NE,35,0.0,0.0,69,0.00,,CLR,0.00,VWS V14.01,2013-09-05 06:35:00,
2013-09-05 01:41:00,60.3,50.5,30.08,NE,35,0.0,0.0,70,0.00,,CLR,0.00,VWS V14.01,2013-09-05 06:41:00,
2013-09-05 01:47:00,60.3,50.5,30.08,NE,35,0.0,0.0,70,0.00,,CLR,0.00,VWS V14.01,2013-09-05 06:47:00,
2013-09-05 01:52:00,60.4,51.0,30.08,NE,35,0.0,0.0,71,0.00,,CLR,0.00,VWS V14.01,2013-09-05 06:52:00,
2013-09-05 01:58:00,60.4,51.0,30.08,NE,35,0.0,0.0,71,0.00,,CLR,0.00,VWS V14.01,2013-09-05 06:58:00,
2013-09-05 02:03:00,60.4,51.0,30.08,NE,35,0.0,0.0,71,0.00,,CLR,0.00,VWS V14.01,2013-09-05 07:03:00,
2013-09-05 02:08:00,60.4,51.0,30.08,NE,35,0.0,0.0,71,0.00,,CLR,0.00,VWS V14.01,2013-09-05 07:08:00,
2013-09-05 02:13:00,60.4,51.4,30.08,NE,35,0.0,0.0,72,0.00,,CLR,0.00,VWS V14.01,2013-09-05 07:13:00,
2013-09-05 02:19:00,60.4,51.4,30.08,NE,35,0.0,0.0,72,0.00,,CLR,0.00,VWS V14.01,2013-09-05 07:19:00,
2013-09-05 02:24:00,60.4,51.4,30.08,NE,35,0.0,0.0,72,0.00,,CLR,0.00,VWS V14.01,2013-09-05 07:24:00,
2013-09-05 02:30:00,60.3,51.2,30.08,NE,35,0.0,0.0,72,0.00,,CLR,0.00,VWS V14.01,2013-09-05 07:30:00,
2013-09-05 02:36:00,60.3,51.2,30.08,NE,35,0.0,0.0,72,0.00,,CLR,0.00,VWS V14.01,2013-09-05 07:36:00,
2013-09-05 02:50:00,60.1,51.4,30.08,East,82,0.0,0.0,73,0.00,,CLR,0.00,VWS V14.01,2013-09-05 07:50:00,
2013-09-05 02:55:00,60.1,51.4,30.08,East,82,0.0,0.0,73,0.00,,CLR,0.00,VWS V14.01,2013-09-05 07:55:00,
2013-09-05 03:01:00,60.1,51.4,30.08,East,82,0.0,0.0,73,0.00,,CLR,0.00,VWS V14.01,2013-09-05 08:01:00,
2013-09-05 03:06:00,59.9,51.2,30.08,North,4,0.0,0.0,73,0.00,,CLR,0.00,VWS V14.01,2013-09-05 08:06:00,
2013-09-05 03:11:00,59.9,51.2,30.08,North,4,0.0,0.0,73,0.00,,CLR,0.00,VWS V14.01,2013-09-05 08:11:00,
2013-09-05 03:16:00,59.7,51.1,30.08,North,4,0.0,0.0,73,0.00,,CLR,0.00,VWS V14.01,2013-09-05 08:16:00,
2013-09-05 03:22:00,59.5,50.9,30.11,North,4,0.0,0.0,73,0.00,,CLR,0.00,VWS V14.01,2013-09-05 08:22:00,
2013-09-05 03:27:00,59.4,50.7,30.11,North,4,0.0,0.0,73,0.00,,CLR,0.00,VWS V14.01,2013-09-05 08:27:00,
2013-09-05 03:33:00,59.2,50.5,30.11,North,4,0.0,0.0,73,0.00,,CLR,0.00,VWS V14.01,2013-09-05 08:33:00,
2013-09-05 03:39:00,59.0,50.4,30.11,North,4,0.0,0.0,73,0.00,,CLR,0.00,VWS V14.01,2013-09-05 08:39:00,
2013-09-05 03:44:00,58.8,50.6,30.11,North,4,0.0,0.0,74,0.00,,CLR,0.00,VWS V14.01,2013-09-05 08:44:00,
2013-09-05 03:50:00,58.8,50.6,30.11,North,4,0.0,0.0,74,0.00,,CLR,0.00,VWS V14.01,2013-09-05 08:50:00,
2013-09-05 03:55:00,58.6,50.4,30.11,North,4,0.0,0.0,74,0.00,,CLR,0.00,VWS V14.01,2013-09-05 08:55:00,
2013-09-05 04:01:00,58.5,50.2,30.11,North,4,0.0,0.0,74,0.00,,FEW019,0.00,VWS V14.01,2013-09-05 09:01:00,
2013-09-05 04:07:00,58.5,50.2,30.11,North,4,0.0,0.0,74,0.00,,FEW019,0.00,VWS V14.01,2013-09-05 09:07:00,
2013-09-05 04:12:00,58.5,50.6,30.11,North,4,0.0,0.0,75,0.00,,FEW019,0.00,VWS V14.01,2013-09-05 09:12:00,
2013-09-05 04:18:00,58.5,50.6,30.11,North,357,0.0,0.0,75,0.00,,FEW019,0.00,VWS V14.01,2013-09-05 09:18:00,
2013-09-05 04:23:00,58.5,50.6,30.11,North,357,0.0,0.0,75,0.00,,FEW019,0.00,VWS V14.01,2013-09-05 09:23:00,
2013-09-05 04:29:00,58.5,50.6,30.11,North,357,0.0,2.7,75,0.00,,FEW019,0.00,VWS V14.01,2013-09-05 09:29:00,
2013-09-05 04:35:00,58.3,50.4,30.11,NNE,28,3.6,4.0,75,0.00,,FEW019,0.00,VWS V14.01,2013-09-05 09:35:00,
2013-09-05 04:40:00,58.1,50.2,30.11,North,0,0.0,3.6,75,0.00,,FEW019,0.00,VWS V14.01,2013-09-05 09:40:00,
2013-09-05 04:45:00,57.9,49.7,30.11,North,0,0.0,0.0,74,0.00,,FEW019,0.00,VWS V14.01,2013-09-05 09:45:00,
2013-09-05 04:50:00,57.7,49.5,30.11,North,357,0.0,0.0,74,0.00,,FEW019,0.00,VWS V14.01,2013-09-05 09:50:00,
2013-09-05 04:56:00,57.4,49.2,30.11,North,357,0.0,2.7,74,0.00,,FEW019,0.00,VWS V14.01,2013-09-05 09:56:00,
2013-09-05 05:01:00,57.2,49.0,30.11,NNE,13,0.0,0.0,74,0.00,,CLR,0.00,VWS V14.01,2013-09-05 10:01:00,
2013-09-05 05:07:00,56.8,48.7,30.11,NNE,15,0.0,0.0,74,0.00,,CLR,0.00,VWS V14.01,2013-09-05 10:07:00,
2013-09-05 05:12:00,56.7,48.1,30.11,North,357,0.0,0.0,73,0.00,,CLR,0.00,VWS V14.01,2013-09-05 10:12:00,
2013-09-05 05:18:00,56.5,47.9,30.14,North,357,0.0,0.0,73,0.00,,CLR,0.00,VWS V14.01,2013-09-05 10:18:00,
2013-09-05 05:24:00,56.1,47.6,30.14,North,357,0.0,0.0,73,0.00,,CLR,0.00,VWS V14.01,2013-09-05 10:24:00,
2013-09-05 05:29:00,55.9,47.1,30.14,North,357,2.7,2.7,72,0.00,,CLR,0.00,VWS V14.01,2013-09-05 10:29:00,
2013-09-05 05:34:00,55.8,46.9,30.14,North,357,0.0,0.0,72,0.00,,CLR,0.00,VWS V14.01,2013-09-05 10:34:00,
2013-09-05 05:39:00,55.6,46.7,30.14,North,357,0.0,0.0,72,0.00,,CLR,0.00,VWS V14.01,2013-09-05 10:39:00,
2013-09-05 05:45:00,55.4,46.5,30.14,North,357,0.0,0.0,72,0.00,,CLR,0.00,VWS V14.01,2013-09-05 10:45:00,
2013-09-05 05:51:00,55.2,46.4,30.14,North,357,0.0,0.0,72,0.00,,CLR,0.00,VWS V14.01,2013-09-05 10:51:00,
2013-09-05 05:56:00,55.0,45.8,30.14,North,357,0.0,0.0,71,0.00,,CLR,0.00,VWS V14.01,2013-09-05 10:56:00,
2013-09-05 06:01:00,54.7,45.5,30.14,North,357,0.0,0.0,71,0.00,,CLR,0.00,VWS V14.01,2013-09-05 11:01:00,
2013-09-05 06:06:00,54.5,45.3,30.14,North,357,0.0,0.0,71,0.00,,CLR,0.00,VWS V14.01,2013-09-05 11:06:00,
2013-09-05 06:11:00,54.5,45.3,30.14,North,357,0.0,0.0,71,0.00,,CLR,0.00,VWS V14.01,2013-09-05 11:11:00,
2013-09-05 06:17:00,54.3,45.1,30.14,North,357,0.0,0.0,71,0.00,,CLR,0.00,VWS V14.01,2013-09-05 11:17:00,
2013-09-05 06:22:00,54.1,45.0,30.14,North,357,0.0,0.0,71,0.00,,CLR,0.00,VWS V14.01,2013-09-05 11:22:00,
2013-09-05 06:27:00,54.1,44.6,30.14,North,357,0.0,0.0,70,0.00,,CLR,0.00,VWS V14.01,2013-09-05 11:27:00,
2013-09-05 06:32:00,54.0,44.4,30.14,NE,51,0.0,0.0,70,0.00,,CLR,0.00,VWS V14.01,2013-09-05 11:32:00,
2013-09-05 06:38:00,53.8,44.2,30.14,NE,35,0.0,0.0,70,0.00,,CLR,0.00,VWS V14.01,2013-09-05 11:38:00,
2013-09-05 06:43:00,53.8,44.2,30.14,ENE,63,0.0,0.0,70,0.00,,CLR,0.00,VWS V14.01,2013-09-05 11:43:00,
2013-09-05 06:49:00,53.8,44.2,30.17,South,171,0.0,0.0,70,0.00,,CLR,0.00,VWS V14.01,2013-09-05 11:49:00,
2013-09-05 06:54:00,53.8,44.2,30.17,South,172,0.0,0.0,70,0.00,,CLR,0.00,VWS V14.01,2013-09-05 11:54:00,
2013-09-05 06:59:00,53.8,43.9,30.17,South,172,0.0,0.0,69,0.00,,CLR,0.00,VWS V14.01,2013-09-05 11:59:00,
2013-09-05 07:04:00,53.8,44.2,30.17,South,172,0.0,0.0,70,0.00,,CLR,0.00,VWS V14.01,2013-09-05 12:04:00,
2013-09-05 07:10:00,53.8,43.9,30.17,South,172,0.0,0.0,69,0.00,,CLR,0.00,VWS V14.01,2013-09-05 12:10:00,
2013-09-05 07:15:00,54.0,44.0,30.17,South,171,0.0,0.0,69,0.00,,CLR,0.00,VWS V14.01,2013-09-05 12:15:00,
2013-09-05 07:21:00,54.3,44.4,30.17,South,172,0.0,0.0,69,0.00,,CLR,0.00,VWS V14.01,2013-09-05 12:21:00,
2013-09-05 07:27:00,54.5,44.5,30.17,South,171,0.0,0.0,69,0.00,,CLR,0.00,VWS V14.01,2013-09-05 12:27:00,
2013-09-05 07:32:00,54.7,44.7,30.17,South,172,0.0,0.0,69,0.00,,CLR,0.00,VWS V14.01,2013-09-05 12:32:00,
2013-09-05 07:37:00,55.0,44.7,30.17,East,95,0.0,3.1,68,0.00,,CLR,0.00,VWS V14.01,2013-09-05 12:37:00,
2013-09-05 07:42:00,55.4,45.0,30.17,East,94,0.0,0.0,68,0.00,,CLR,0.00,VWS V14.01,2013-09-05 12:42:00,
2013-09-05 07:48:00,55.6,44.8,30.17,NE,44,0.0,0.0,67,0.00,,CLR,0.00,VWS V14.01,2013-09-05 12:48:00,
2013-09-05 07:53:00,55.9,44.8,30.17,North,353,0.0,0.0,66,0.00,,CLR,0.00,VWS V14.01,2013-09-05 12:53:00,
2013-09-05 07:58:00,56.3,44.7,30.17,ENE,75,0.0,2.7,65,0.00,,CLR,0.00,VWS V14.01,2013-09-05 12:58:00,
2013-09-05 08:03:00,56.7,44.6,30.17,ENE,73,0.0,0.0,64,0.00,,CLR,0.00,VWS V14.01,2013-09-05 13:03:00,
2013-09-05 08:09:00,56.8,43.5,30.17,NNE,26,0.0,0.0,61,0.00,,CLR,0.00,VWS V14.01,2013-09-05 13:09:00,
2013-09-05 08:14:00,57.2,43.0,30.17,NNE,30,0.0,0.0,59,0.00,,CLR,0.00,VWS V14.01,2013-09-05 13:14:00,
2013-09-05 08:20:00,57.6,40.6,30.20,ENE,74,3.1,3.1,53,0.00,,CLR,0.00,VWS V14.01,2013-09-05 13:20:00,
2013-09-05 08:26:00,57.9,37.3,30.20,NNE,31,2.2,3.6,46,0.00,,CLR,0.00,VWS V14.01,2013-09-05 13:26:00,
2013-09-05 08:31:00,58.3,37.6,30.20,NNE,14,3.6,5.8,46,0.00,,CLR,0.00,VWS V14.01,2013-09-05 13:31:00,
2013-09-05 08:37:00,58.8,37.0,30.17,ENE,69,0.0,4.0,44,0.00,,CLR,0.00,VWS V14.01,2013-09-05 13:37:00,
2013-09-05 08:42:00,59.4,36.9,30.17,NNE,33,0.0,0.0,43,0.00,,CLR,0.00,VWS V14.01,2013-09-05 13:42:00,
2013-09-05 08:47:00,59.5,33.9,30.20,SE,133,5.8,8.1,38,0.00,,CLR,0.00,VWS V14.01,2013-09-05 13:47:00,
2013-09-05 08:52:00,60.1,33.8,30.20,ESE,111,2.2,3.6,37,0.00,,CLR,0.00,VWS V14.01,2013-09-05 13:52:00,
2013-09-05 08:58:00,60.4,33.4,30.20,NE,52,0.0,0.0,36,0.00,,CLR,0.00,VWS V14.01,2013-09-05 13:58:00,
2013-09-05 09:03:00,60.8,33.0,30.20,ENE,60,5.8,10.5,35,0.00,,CLR,0.00,VWS V14.01,2013-09-05 14:03:00,
2013-09-05 09:09:00,61.0,33.2,30.20,NNE,13,2.7,6.3,35,0.00,,CLR,0.00,VWS V14.01,2013-09-05 14:09:00,
2013-09-05 09:15:00,61.7,33.8,30.20,East,85,5.8,8.1,35,0.00,,CLR,0.00,VWS V14.01,2013-09-05 14:15:00,
2013-09-05 09:20:00,62.1,33.4,30.20,ESE,109,5.8,7.2,34,0.00,,CLR,0.00,VWS V14.01,2013-09-05 14:20:00,
2013-09-05 09:25:00,62.4,33.0,30.20,SE,135,3.1,5.4,33,0.00,,CLR,0.00,VWS V14.01,2013-09-05 14:25:00,
2013-09-05 09:31:00,63.0,32.7,30.20,ESE,117,4.9,7.6,32,0.00,,CLR,0.00,VWS V14.01,2013-09-05 14:31:00,
2013-09-05 09:36:00,63.1,31.2,30.20,SE,141,0.0,11.0,30,0.00,,CLR,0.00,VWS V14.01,2013-09-05 14:36:00,
2013-09-05 09:42:00,63.5,30.7,30.20,SSE,154,5.4,5.4,29,0.00,,CLR,0.00,VWS V14.01,2013-09-05 14:42:00,
2013-09-05 09:48:00,63.7,30.9,30.20,ESE,122,0.0,6.3,29,0.00,,CLR,0.00,VWS V14.01,2013-09-05 14:48:00,
2013-09-05 09:54:00,64.0,30.3,30.20,ENE,69,5.8,8.1,28,0.00,,CLR,0.00,VWS V14.01,2013-09-05 14:54:00,
2013-09-05 09:59:00,64.4,30.6,30.20,NE,36,4.0,6.3,28,0.00,,CLR,0.00,VWS V14.01,2013-09-05 14:59:00,
2013-09-05 10:04:00,64.8,30.0,30.20,NNW,338,2.7,3.1,27,0.00,,BKN030,0.00,VWS V14.01,2013-09-05 15:04:00,
2013-09-05 10:09:00,64.8,30.0,30.20,NNE,19,0.0,4.0,27,0.00,,BKN030,0.00,VWS V14.01,2013-09-05 15:09:00,
2013-09-05 10:14:00,64.8,30.0,30.20,ENE,59,2.7,5.4,27,0.00,,BKN030,0.00,VWS V14.01,2013-09-05 15:14:00,
2013-09-05 10:19:00,65.3,30.5,30.20,East,98,5.4,8.1,27,0.00,,BKN030,0.00,VWS V14.01,2013-09-05 15:19:00,
2013-09-05 10:25:00,65.7,30.8,30.20,SW,220,2.2,6.3,27,0.00,,BKN030,0.00,VWS V14.01,2013-09-05 15:25:00,
2013-09-05 10:30:00,66.0,31.1,30.20,ENE,76,5.4,6.3,27,0.00,,BKN030,0.00,VWS V14.01,2013-09-05 15:30:00,
2013-09-05 10:36:00,66.2,30.3,30.20,ENE,59,4.0,8.1,26,0.00,,BKN030,0.00,VWS V14.01,2013-09-05 15:36:00,
2013-09-05 10:41:00,66.7,30.8,30.20,NNE,30,2.2,4.0,26,0.00,,BKN030,0.00,VWS V14.01,2013-09-05 15:41:00,
2013-09-05 10:47:00,66.7,30.8,30.20,ESE,109,3.6,7.6,26,0.00,,BKN030,0.00,VWS V14.01,2013-09-05 15:47:00,
2013-09-05 10:52:00,66.9,30.0,30.20,NE,50,0.0,3.6,25,0.00,,BKN030,0.00,VWS V14.01,2013-09-05 15:52:00,
2013-09-05 10:57:00,67.3,31.2,30.20,East,88,4.9,5.4,26,0.00,,BKN030,0.00,VWS V14.01,2013-09-05 15:57:00,
2013-09-05 11:03:00,67.5,30.4,30.20,NNE,28,3.6,3.6,25,0.00,,BKN030,0.00,VWS V14.01,2013-09-05 16:03:00,
2013-09-05 11:08:00,67.5,30.4,30.20,ESE,117,7.6,7.6,25,0.00,,BKN030,0.00,VWS V14.01,2013-09-05 16:08:00,
2013-09-05 11:13:00,67.5,30.4,30.20,East,79,3.6,6.7,25,0.00,,BKN030,0.00,VWS V14.01,2013-09-05 16:13:00,
2013-09-05 11:19:00,67.8,30.7,30.20,ESE,104,3.6,6.3,25,0.00,,BKN030,0.00,VWS V14.01,2013-09-05 16:19:00,
2013-09-05 11:25:00,68.2,30.0,30.20,NE,35,2.2,4.0,24,0.00,,BKN030,0.00,VWS V14.01,2013-09-05 16:25:00,
2013-09-05 11:31:00,68.2,30.0,30.20,ESE,110,5.4,5.8,24,0.00,,BKN030,0.00,VWS V14.01,2013-09-05 16:31:00,
2013-09-05 11:36:00,68.5,30.4,30.20,East,84,5.8,5.8,24,0.00,,BKN030,0.00,VWS V14.01,2013-09-05 16:36:00,
2013-09-05 11:41:00,69.3,31.0,30.20,ESE,116,5.8,6.3,24,0.00,,BKN030,0.00,VWS V14.01,2013-09-05 16:41:00,
2013-09-05 11:47:00,69.6,31.3,30.20,SE,134,8.1,8.1,24,0.00,,BKN030,0.00,VWS V14.01,2013-09-05 16:47:00,
2013-09-05 11:52:00,69.8,30.4,30.20,SE,126,0.0,3.6,23,0.00,,BKN030,0.00,VWS V14.01,2013-09-05 16:52:00,
2013-09-05 11:58:00,70.2,30.7,30.20,SE,133,2.7,4.0,23,0.00,,BKN030,0.00,VWS V14.01,2013-09-05 16:58:00,
2013-09-05 12:03:00,70.5,31.0,30.20,East,91,6.3,7.6,23,0.00,,CLR,0.00,VWS V14.01,2013-09-05 17:03:00,
2013-09-05 12:09:00,70.9,31.3,30.20,ESE,114,8.7,8.7,23,0.00,,CLR,0.00,VWS V14.01,2013-09-05 17:09:00,
2013-09-05 12:15:00,71.1,31.4,30.20,East,97,3.1,6.3,23,0.00,,CLR,0.00,VWS V14.01,2013-09-05 17:15:00,
2013-09-05 12:20:00,71.2,31.6,30.20,ESE,115,3.1,3.1,23,0.00,,CLR,0.00,VWS V14.01,2013-09-05 17:20:00,
2013-09-05 12:26:00,71.8,30.9,30.20,ESE,102,4.9,6.3,22,0.00,,CLR,0.00,VWS V14.01,2013-09-05 17:26:00,
2013-09-05 12:31:00,72.1,31.2,30.20,NNE,15,2.2,5.4,22,0.00,,CLR,0.00,VWS V14.01,2013-09-05 17:31:00,
2013-09-05 12:36:00,72.3,31.4,30.17,NE,45,4.9,4.9,22,0.00,,CLR,0.00,VWS V14.01,2013-09-05 17:36:00,
2013-09-05 12:41:00,72.7,31.7,30.17,ENE,76,3.1,4.0,22,0.00,,CLR,0.00,VWS V14.01,2013-09-05 17:41:00,
2013-09-05 12:47:00,72.7,31.7,30.17,ESE,115,4.0,4.0,22,0.00,,CLR,0.00,VWS V14.01,2013-09-05 17:47:00,
2013-09-05 12:52:00,72.3,31.4,30.17,WSW,240,4.9,5.8,22,0.00,,CLR,0.00,VWS V14.01,2013-09-05 17:52:00,
2013-09-05 12:58:00,72.1,31.2,30.17,ENE,73,0.0,3.1,22,0.00,,CLR,0.00,VWS V14.01,2013-09-05 17:58:00,
2013-09-05 13:03:00,72.7,31.7,30.17,ESE,106,3.1,4.0,22,0.00,,CLR,0.00,VWS V14.01,2013-09-05 18:03:00,
2013-09-05 13:09:00,73.2,32.1,30.17,SE,146,4.0,5.8,22,0.00,,CLR,0.00,VWS V14.01,2013-09-05 18:09:00,
2013-09-05 13:14:00,73.2,32.1,30.17,ESE,122,3.6,4.9,22,0.00,,CLR,0.00,VWS V14.01,2013-09-05 18:14:00,
2013-09-05 13:19:00,73.6,31.3,30.17,North,357,2.2,4.0,21,0.00,,CLR,0.00,VWS V14.01,2013-09-05 18:19:00,
2013-09-05 13:24:00,73.9,31.6,30.17,South,178,5.4,5.4,21,0.00,,CLR,0.00,VWS V14.01,2013-09-05 18:24:00,
2013-09-05 13:30:00,73.8,31.4,30.17,East,100,6.3,6.3,21,0.00,,CLR,0.00,VWS V14.01,2013-09-05 18:30:00,
2013-09-05 13:35:00,73.8,31.4,30.17,SE,124,4.9,5.8,21,0.00,,CLR,0.00,VWS V14.01,2013-09-05 18:35:00,
2013-09-05 13:40:00,73.8,31.4,30.17,North,8,0.0,0.0,21,0.00,,CLR,0.00,VWS V14.01,2013-09-05 18:40:00,
2013-09-05 13:46:00,73.8,31.4,30.17,ENE,73,4.9,5.8,21,0.00,,CLR,0.00,VWS V14.01,2013-09-05 18:46:00,
2013-09-05 13:51:00,74.3,31.9,30.17,South,177,2.7,3.1,21,0.00,,CLR,0.00,VWS V14.01,2013-09-05 18:51:00,
2013-09-05 13:57:00,74.7,32.2,30.17,North,357,3.1,5.4,21,0.00,,CLR,0.00,VWS V14.01,2013-09-05 18:57:00,
2013-09-05 14:02:00,75.0,32.5,30.17,ESE,112,2.7,6.7,21,0.00,,CLR,0.00,VWS V14.01,2013-09-05 19:02:00,
2013-09-05 14:07:00,75.4,29.0,30.17,South,175,4.0,5.8,18,0.00,,CLR,0.00,VWS V14.01,2013-09-05 19:07:00,
2013-09-05 14:12:00,75.2,28.8,30.17,East,100,3.6,3.6,18,0.00,,CLR,0.00,VWS V14.01,2013-09-05 19:12:00,
2013-09-05 14:17:00,75.2,28.8,30.14,SSE,151,0.0,5.8,18,0.00,,CLR,0.00,VWS V14.01,2013-09-05 19:17:00,
2013-09-05 14:22:00,75.2,28.8,30.14,ESE,102,0.0,0.0,18,0.00,,CLR,0.00,VWS V14.01,2013-09-05 19:22:00,
2013-09-05 14:27:00,75.6,31.7,30.14,East,101,5.4,5.4,20,0.00,,CLR,0.00,VWS V14.01,2013-09-05 19:27:00,
2013-09-05 14:33:00,76.1,29.6,30.14,SW,220,0.0,3.1,18,0.00,,CLR,0.00,VWS V14.01,2013-09-05 19:33:00,
2013-09-05 14:38:00,75.7,29.3,30.14,ESE,110,5.4,5.4,18,0.00,,CLR,0.00,VWS V14.01,2013-09-05 19:38:00,
2013-09-05 14:44:00,76.3,29.7,30.14,SE,130,2.2,3.1,18,0.00,,CLR,0.00,VWS V14.01,2013-09-05 19:44:00,
2013-09-05 14:49:00,76.8,30.1,30.14,East,88,2.7,3.1,18,0.00,,CLR,0.00,VWS V14.01,2013-09-05 19:49:00,
2013-09-05 14:54:00,77.4,30.6,30.14,South,181,3.6,3.6,18,0.00,,CLR,0.00,VWS V14.01,2013-09-05 19:54:00,
2013-09-05 15:00:00,77.4,30.6,30.14,ESE,116,5.4,8.1,18,0.00,,CLR,0.00,VWS V14.01,2013-09-05 20:00:00,
2013-09-05 15:05:00,77.7,30.9,30.14,East,84,0.0,4.9,18,0.00,,CLR,0.00,VWS V14.01,2013-09-05 20:05:00,
2013-09-05 15:11:00,78.1,31.2,30.14,SE,145,3.1,3.6,18,0.00,,CLR,0.00,VWS V14.01,2013-09-05 20:11:00,
2013-09-05 15:16:00,77.9,31.0,30.14,SE,130,4.0,6.7,18,0.00,,CLR,0.00,VWS V14.01,2013-09-05 20:16:00,
2013-09-05 15:22:00,77.9,31.0,30.14,SSE,158,4.9,4.9,18,0.00,,CLR,0.00,VWS V14.01,2013-09-05 20:22:00,
2013-09-05 15:27:00,77.7,30.9,30.14,ESE,104,3.6,4.0,18,0.00,,CLR,0.00,VWS V14.01,2013-09-05 20:27:00,
2013-09-05 15:32:00,78.3,31.3,30.14,ESE,106,3.6,5.8,18,0.00,,CLR,0.00,VWS V14.01,2013-09-05 20:32:00,
2013-09-05 15:38:00,78.8,30.4,30.14,NE,50,0.0,6.3,17,0.00,,CLR,0.00,VWS V14.01,2013-09-05 20:38:00,
2013-09-05 15:43:00,79.5,30.9,30.14,South,191,3.1,4.0,17,0.00,,CLR,0.00,VWS V14.01,2013-09-05 20:43:00,
2013-09-05 15:49:00,79.3,30.8,30.14,East,86,3.6,3.6,17,0.00,,CLR,0.00,VWS V14.01,2013-09-05 20:49:00,
2013-09-05 15:54:00,78.8,30.4,30.14,East,92,4.5,4.5,17,0.00,,CLR,0.00,VWS V14.01,2013-09-05 20:54:00,
2013-09-05 15:59:00,77.9,31.0,30.14,South,170,3.1,4.0,18,0.00,,CLR,0.00,VWS V14.01,2013-09-05 20:59:00,
2013-09-05 16:04:00,77.4,30.6,30.14,SSE,147,3.1,3.1,18,0.00,,CLR,0.00,VWS V14.01,2013-09-05 21:04:00,
2013-09-05 16:09:00,77.5,30.7,30.14,East,98,2.7,5.8,18,0.00,,CLR,0.00,VWS V14.01,2013-09-05 21:09:00,
2013-09-05 16:15:00,77.9,31.0,30.14,South,184,4.0,4.0,18,0.00,,CLR,0.00,VWS V14.01,2013-09-05 21:15:00,
2013-09-05 16:21:00,78.1,31.2,30.14,SSW,206,3.1,6.3,18,0.00,,CLR,0.00,VWS V14.01,2013-09-05 21:21:00,
2013-09-05 16:26:00,77.5,30.7,30.14,South,172,3.1,4.0,18,0.00,,CLR,0.00,VWS V14.01,2013-09-05 21:26:00,
2013-09-05 16:32:00,78.3,31.3,30.14,ENE,71,3.6,4.9,18,0.00,,CLR,0.00,VWS V14.01,2013-09-05 21:32:00,
2013-09-05 16:37:00,79.2,30.6,30.14,SSW,200,3.6,5.4,17,0.00,,CLR,0.00,VWS V14.01,2013-09-05 21:37:00,
2013-09-05 16:43:00,79.0,30.5,30.14,WSW,247,0.0,0.0,17,0.00,,CLR,0.00,VWS V14.01,2013-09-05 21:43:00,
2013-09-05 16:48:00,78.8,30.4,30.14,ESE,102,5.4,8.1,17,0.00,,CLR,0.00,VWS V14.01,2013-09-05 21:48:00,
2013-09-05 16:53:00,78.6,31.6,30.14,South,172,0.0,0.0,18,0.00,,CLR,0.00,VWS V14.01,2013-09-05 21:53:00,
2013-09-05 16:59:00,78.3,31.3,30.14,South,174,2.2,3.6,18,0.00,,CLR,0.00,VWS V14.01,2013-09-05 21:59:00,
2013-09-05 17:04:00,77.7,30.9,30.14,SE,137,5.8,5.8,18,0.00,,CLR,0.00,VWS V14.01,2013-09-05 22:04:00,
2013-09-05 17:09:00,77.0,30.3,30.14,South,181,0.0,5.4,18,0.00,,CLR,0.00,VWS V14.01,2013-09-05 22:09:00,
2013-09-05 17:14:00,77.2,30.4,30.14,SSE,157,0.0,2.2,18,0.00,,CLR,0.00,VWS V14.01,2013-09-05 22:14:00,
2013-09-05 17:20:00,77.4,30.6,30.11,SSE,167,5.4,5.8,18,0.00,,CLR,0.00,VWS V14.01,2013-09-05 22:20:00,
2013-09-05 17:25:00,77.0,30.3,30.11,SE,131,8.1,8.1,18,0.00,,CLR,0.00,VWS V14.01,2013-09-05 22:25:00,
2013-09-05 17:30:00,77.4,30.6,30.11,South,185,2.2,3.6,18,0.00,,CLR,0.00,VWS V14.01,2013-09-05 22:30:00,
2013-09-05 17:36:00,77.5,30.7,30.11,SSE,159,0.0,2.7,18,0.00,,CLR,0.00,VWS V14.01,2013-09-05 22:36:00,
2013-09-05 17:41:00,77.4,30.6,30.11,SE,137,3.1,4.0,18,0.00,,CLR,0.00,VWS V14.01,2013-09-05 22:41:00,
2013-09-05 17:46:00,77.5,30.7,30.11,ESE,116,3.6,5.8,18,0.00,,CLR,0.00,VWS V14.01,2013-09-05 22:46:00,
2013-09-05 17:52:00,76.8,30.1,30.11,South,173,3.1,4.0,18,0.00,,CLR,0.00,VWS V14.01,2013-09-05 22:52:00,
2013-09-05 17:58:00,75.9,29.4,30.11,SW,217,4.0,6.3,18,0.00,,CLR,0.00,VWS V14.01,2013-09-05 22:58:00,
2013-09-05 18:03:00,74.8,28.5,30.11,ESE,112,0.0,3.1,18,0.00,,CLR,0.00,VWS V14.01,2013-09-05 23:03:00,
2013-09-05 18:09:00,73.6,27.5,30.11,SSE,148,0.0,2.7,18,0.00,,CLR,0.00,VWS V14.01,2013-09-05 23:09:00,
2013-09-05 18:14:00,72.9,28.2,30.11,SSE,168,4.0,4.0,19,0.00,,CLR,0.00,VWS V14.01,2013-09-05 23:14:00,
2013-09-05 18:19:00,72.3,30.2,30.11,SSE,164,0.0,0.0,21,0.00,,CLR,0.00,VWS V14.01,2013-09-05 23:19:00,
2013-09-05 18:24:00,72.0,29.9,30.11,ESE,110,0.0,4.0,21,0.00,,CLR,0.00,VWS V14.01,2013-09-05 23:24:00,
2013-09-05 18:30:00,71.6,29.6,30.11,ESE,118,0.0,0.0,21,0.00,,CLR,0.00,VWS V14.01,2013-09-05 23:30:00,
2013-09-05 18:35:00,71.4,30.6,30.11,South,179,0.0,4.0,22,0.00,,CLR,0.00,VWS V14.01,2013-09-05 23:35:00,
2013-09-05 18:41:00,70.9,30.2,30.11,East,101,0.0,4.9,22,0.00,,CLR,0.00,VWS V14.01,2013-09-05 23:41:00,
2013-09-05 18:47:00,70.3,29.7,30.11,SE,142,2.7,3.1,22,0.00,,CLR,0.00,VWS V14.01,2013-09-05 23:47:00,
2013-09-05 18:53:00,70.2,29.6,30.11,SE,143,3.6,3.6,22,0.00,,CLR,0.00,VWS V14.01,2013-09-05 23:53:00,
2013-09-05 18:58:00,69.6,29.1,30.11,ESE,110,3.1,4.0,22,0.00,,CLR,0.00,VWS V14.01,2013-09-05 23:58:00,
2013-09-05 19:03:00,69.3,29.9,30.11,ESE,123,0.0,2.7,23,0.00,,CLR,0.00,VWS V14.01,2013-09-06 00:03:00,
2013-09-05 19:08:00,68.7,29.5,30.11,SE,130,2.7,3.6,23,0.00,,CLR,0.00,VWS V14.01,2013-09-06 00:08:00,
2013-09-05 19:13:00,68.4,29.1,30.11,SSE,159,0.0,0.0,23,0.00,,CLR,0.00,VWS V14.01,2013-09-06 00:13:00,
2013-09-05 19:19:00,67.8,28.7,30.11,ESE,112,3.1,4.0,23,0.00,,CLR,0.00,VWS V14.01,2013-09-06 00:19:00,
2013-09-05 19:24:00,67.3,29.3,30.11,SE,146,3.6,5.8,24,0.00,,CLR,0.00,VWS V14.01,2013-09-06 00:24:00,
2013-09-05 19:30:00,66.6,28.7,30.11,ESE,118,3.6,3.6,24,0.00,,CLR,0.00,VWS V14.01,2013-09-06 00:30:00,
2013-09-05 19:35:00,66.0,28.2,30.11,SE,131,2.7,4.9,24,0.00,,CLR,0.00,VWS V14.01,2013-09-06 00:35:00,
2013-09-05 19:41:00,65.5,27.8,30.11,ESE,104,5.4,5.4,24,0.00,,CLR,0.00,VWS V14.01,2013-09-06 00:41:00,
2013-09-05 19:46:00,65.1,28.5,30.11,SE,143,3.1,5.8,25,0.00,,CLR,0.00,VWS V14.01,2013-09-06 00:46:00,
2013-09-05 19:51:00,64.6,28.0,30.14,ESE,104,3.6,4.0,25,0.00,,CLR,0.00,VWS V14.01,2013-09-06 00:51:00,
2013-09-05 19:57:00,64.0,27.5,30.14,East,101,4.9,7.2,25,0.00,,CLR,0.00,VWS V14.01,2013-09-06 00:57:00,
2013-09-05 20:02:00,63.7,27.2,30.14,ESE,107,4.0,5.4,25,0.00,,CLR,0.00,VWS V14.01,2013-09-06 01:02:00,
2013-09-05 20:08:00,63.1,27.7,30.14,ESE,112,3.1,3.6,26,0.00,,CLR,0.00,VWS V14.01,2013-09-06 01:08:00,
2013-09-05 20:13:00,63.0,27.6,30.14,East,93,4.0,4.0,26,0.00,,CLR,0.00,VWS V14.01,2013-09-06 01:13:00,
2013-09-05 20:19:00,62.6,27.3,30.14,ESE,110,3.6,4.9,26,0.00,,CLR,0.00,VWS V14.01,2013-09-06 01:19:00,
2013-09-05 20:24:00,62.4,28.0,30.14,SE,124,2.2,4.9,27,0.00,,CLR,0.00,VWS V14.01,2013-09-06 01:24:00,
2013-09-05 20:29:00,62.1,27.7,30.14,ESE,109,2.2,2.7,27,0.00,,CLR,0.00,VWS V14.01,2013-09-06 01:29:00,
2013-09-05 20:34:00,61.9,28.4,30.14,ESE,116,0.0,4.9,28,0.00,,CLR,0.00,VWS V14.01,2013-09-06 01:34:00,
2013-09-05 20:39:00,61.5,28.1,30.14,ESE,115,4.9,4.9,28,0.00,,CLR,0.00,VWS V14.01,2013-09-06 01:39:00,
2013-09-05 20:44:00,61.3,28.0,30.14,SSE,159,3.1,4.9,28,0.00,,CLR,0.00,VWS V14.01,2013-09-06 01:44:00,
2013-09-05 20:49:00,61.0,28.5,30.14,ESE,115,0.0,0.0,29,0.00,,CLR,0.00,VWS V14.01,2013-09-06 01:49:00,
2013-09-05 20:55:00,60.8,28.4,30.14,SE,139,2.7,3.6,29,0.00,,CLR,0.00,VWS V14.01,2013-09-06 01:55:00,
2013-09-05 21:01:00,60.6,29.0,30.14,ESE,112,4.0,5.4,30,0.00,,CLR,0.00,VWS V14.01,2013-09-06 02:01:00,
2013-09-05 21:06:00,60.4,29.7,30.14,SSE,151,0.0,0.0,31,0.00,,CLR,0.00,VWS V14.01,2013-09-06 02:06:00,
2013-09-05 21:12:00,60.1,30.1,30.14,South,169,3.1,3.6,32,0.00,,CLR,0.00,VWS V14.01,2013-09-06 02:12:00,
2013-09-05 21:17:00,60.1,30.9,30.14,SE,131,0.0,0.0,33,0.00,,CLR,0.00,VWS V14.01,2013-09-06 02:17:00,
2013-09-05 21:23:00,59.7,31.3,30.14,SE,139,0.0,3.1,34,0.00,,CLR,0.00,VWS V14.01,2013-09-06 02:23:00,
2013-09-05 21:28:00,59.5,31.2,30.14,SE,124,0.0,0.0,34,0.00,,CLR,0.00,VWS V14.01,2013-09-06 02:28:00,
2013-09-05 21:33:00,59.4,31.0,30.14,SE,124,0.0,0.0,34,0.00,,CLR,0.00,VWS V14.01,2013-09-06 02:33:00,
2013-09-05 21:38:00,59.2,30.9,30.14,SE,138,0.0,0.0,34,0.00,,CLR,0.00,VWS V14.01,2013-09-06 02:38:00,
2013-09-05 21:44:00,59.0,30.7,30.14,ESE,108,0.0,0.0,34,0.00,,CLR,0.00,VWS V14.01,2013-09-06 02:44:00,
2013-09-05 21:49:00,58.8,31.2,30.14,SSE,164,2.7,3.6,35,0.00,,CLR,0.00,VWS V14.01,2013-09-06 02:49:00,
2013-09-05 21:54:00,58.6,31.1,30.14,SE,124,2.7,3.6,35,0.00,,CLR,0.00,VWS V14.01,2013-09-06 02:54:00,
2013-09-05 22:00:00,58.6,31.1,30.14,SSE,158,0.0,0.0,35,0.00,,CLR,0.00,VWS V14.01,2013-09-06 03:00:00,
2013-09-05 22:05:00,58.5,31.6,30.14,SSE,158,3.6,4.0,36,0.00,,CLR,0.00,VWS V14.01,2013-09-06 03:05:00,
2013-09-05 22:11:00,58.3,31.5,30.14,South,180,0.0,0.0,36,0.00,,CLR,0.00,VWS V14.01,2013-09-06 03:11:00,
2013-09-05 22:16:00,57.9,31.1,30.14,SE,138,0.0,0.0,36,0.00,,CLR,0.00,VWS V14.01,2013-09-06 03:16:00,
2013-09-05 22:21:00,57.9,31.1,30.14,SE,134,0.0,0.0,36,0.00,,CLR,0.00,VWS V14.01,2013-09-06 03:21:00,
2013-09-05 22:26:00,57.7,31.0,30.14,SSE,167,0.0,0.0,36,0.00,,CLR,0.00,VWS V14.01,2013-09-06 03:26:00,
2013-09-05 22:32:00,57.6,30.8,30.14,South,169,0.0,0.0,36,0.00,,CLR,0.00,VWS V14.01,2013-09-06 03:32:00,
2013-09-05 22:37:00,57.4,30.7,30.14,SSE,157,0.0,0.0,36,0.00,,CLR,0.00,VWS V14.01,2013-09-06 03:37:00,
2013-09-05 22:42:00,57.2,30.5,30.14,SSE,157,0.0,0.0,36,0.00,,CLR,0.00,VWS V14.01,2013-09-06 03:42:00,
2013-09-05 22:47:00,57.0,31.0,30.14,SSE,158,0.0,0.0,37,0.00,,CLR,0.00,VWS V14.01,2013-09-06 03:47:00,
2013-09-05 22:52:00,56.8,30.9,30.14,SSE,155,0.0,0.0,37,0.00,,CLR,0.00,VWS V14.01,2013-09-06 03:52:00,
2013-09-05 22:57:00,56.7,30.7,30.14,SSE,155,0.0,0.0,37,0.00,,CLR,0.00,VWS V14.01,2013-09-06 03:57:00,
2013-09-05 23:01:00,56.5,31.2,30.14,SSE,155,0.0,0.0,38,0.00,,CLR,0.00,VWS V14.01,2013-09-06 04:01:00,
2013-09-05 23:03:00,56.5,31.2,30.14,SSE,155,0.0,0.0,38,0.00,,CLR,0.00,VWS V14.01,2013-09-06 04:03:00,
2013-09-05 23:04:00,56.3,31.0,30.14,SSE,155,0.0,0.0,38,0.00,,CLR,0.00,VWS V14.01,2013-09-06 04:04:00,
2013-09-05 23:09:00,56.3,31.0,30.14,SSE,148,2.2,4.0,38,0.00,,CLR,0.00,VWS V14.01,2013-09-06 04:09:00,
2013-09-05 23:14:00,56.1,30.9,30.14,SSE,160,0.0,0.0,38,0.00,,CLR,0.00,VWS V14.01,2013-09-06 04:14:00,
2013-09-05 23:18:00,56.1,31.5,30.14,SSE,162,0.0,0.0,39,0.00,,CLR,0.00,VWS V14.01,2013-09-06 04:18:00,
2013-09-05 23:23:00,55.9,31.4,30.14,SSE,161,0.0,0.0,39,0.00,,CLR,0.00,VWS V14.01,2013-09-06 04:23:00,
2013-09-05 23:29:00,55.9,31.4,30.14,South,169,0.0,0.0,39,0.00,,CLR,0.00,VWS V14.01,2013-09-06 04:29:00,
2013-09-05 23:35:00,55.8,31.2,30.14,SSE,164,0.0,0.0,39,0.00,,CLR,0.00,VWS V14.01,2013-09-06 04:35:00,
2013-09-05 23:40:00,55.8,31.2,30.14,SSE,164,0.0,0.0,39,0.00,,CLR,0.00,VWS V14.01,2013-09-06 04:40:00,
2013-09-05 23:46:00,55.6,31.0,30.14,SSE,164,0.0,0.0,39,0.00,,CLR,0.00,VWS V14.01,2013-09-06 04:46:00,
2013-09-05 23:52:00,55.6,31.0,30.14,SSE,158,0.0,0.0,39,0.00,,CLR,0.00,VWS V14.01,2013-09-06 04:52:00,
2013-09-05 23:57:00,55.4,31.5,30.14,SSE,160,0.0,0.0,40,0.00,,CLR,0.00,VWS V14.01,2013-09-06 04:57:00,